createdAt,value
2018-05-31T00:01:25.969Z,54.91
2018-05-31T00:03:53.393Z,54.98
2018-05-31T00:06:21.720Z,55.10
2018-05-31T00:08:49.139Z,55.10
2018-05-31T00:11:16.568Z,55.26
2018-05-31T00:13:43.984Z,55.32
2018-05-31T00:16:11.413Z,55.42
2018-05-31T00:18:38.832Z,55.60
2018-05-31T00:21:06.255Z,55.81
2018-05-31T00:23:33.672Z,56.08
2018-05-31T00:26:01.097Z,56.25
2018-05-31T00:28:28.523Z,56.83
2018-05-31T00:30:55.957Z,56.75
2018-05-31T00:33:23.372Z,56.88
2018-05-31T00:35:50.806Z,57.07
2018-05-31T00:38:18.229Z,57.25
2018-05-31T00:40:45.651Z,57.36
2018-05-31T00:43:13.068Z,57.54
2018-05-31T00:45:40.501Z,57.67
2018-05-31T00:48:07.925Z,57.73
2018-05-31T00:50:35.353Z,57.87
2018-05-31T00:53:02.772Z,57.97
2018-05-31T00:55:41.989Z,58.06
2018-05-31T00:58:09.404Z,58.20
2018-05-31T01:00:36.823Z,58.46
2018-05-31T01:03:04.240Z,58.63
2018-05-31T01:05:31.675Z,58.85
2018-05-31T01:07:59.087Z,59.00
2018-05-31T01:10:26.517Z,59.10
2018-05-31T01:12:53.943Z,59.70
2018-05-31T01:15:21.368Z,59.63
2018-05-31T01:17:48.780Z,59.79
2018-05-31T01:20:16.206Z,59.83
2018-05-31T01:22:43.624Z,59.88
2018-05-31T01:25:11.049Z,60.25
2018-05-31T01:27:38.471Z,60.18
2018-05-31T01:30:05.900Z,60.23
2018-05-31T01:32:33.312Z,60.21
2018-05-31T01:35:00.724Z,60.24
2018-05-31T01:37:28.147Z,60.25
2018-05-31T01:39:55.577Z,60.30
2018-05-31T01:42:22.997Z,60.37
2018-05-31T01:44:50.409Z,60.41
2018-05-31T01:47:17.830Z,60.43
2018-05-31T01:49:45.245Z,60.41
2018-05-31T01:52:12.673Z,60.39
2018-05-31T01:54:40.093Z,60.37
2018-05-31T01:57:07.526Z,60.24
2018-05-31T01:59:34.944Z,60.10
2018-05-31T02:02:02.371Z,59.95
2018-05-31T02:04:29.786Z,59.77
2018-05-31T02:06:57.217Z,59.45
2018-05-31T02:09:24.637Z,59.38
2018-05-31T02:11:52.065Z,59.06
2018-05-31T02:14:19.484Z,58.96
2018-05-31T02:16:46.908Z,58.73
2018-05-31T02:19:14.323Z,58.52
2018-05-31T02:21:41.747Z,58.28
2018-05-31T02:24:09.160Z,58.17
2018-05-31T02:26:36.587Z,57.93
2018-05-31T02:29:04.004Z,57.89
2018-05-31T02:31:31.430Z,57.58
2018-05-31T02:33:58.851Z,57.45
2018-05-31T02:36:26.277Z,57.15
2018-05-31T02:38:53.693Z,57.04
2018-05-31T02:41:21.116Z,56.79
2018-05-31T02:43:48.528Z,56.58
2018-05-31T02:46:15.952Z,56.47
2018-05-31T02:48:43.367Z,56.25
2018-05-31T02:51:10.792Z,56.14
2018-05-31T02:53:38.212Z,55.93
2018-05-31T02:56:05.641Z,55.83
2018-05-31T02:58:33.052Z,55.69
2018-05-31T03:01:00.469Z,55.61
2018-05-31T03:03:27.897Z,55.50
2018-05-31T03:05:55.320Z,55.38
2018-05-31T03:08:22.737Z,55.27
2018-05-31T03:10:50.160Z,55.14
2018-05-31T03:13:17.580Z,55.09
2018-05-31T03:15:45.006Z,54.91
2018-05-31T03:18:12.505Z,54.83
2018-05-31T03:20:39.923Z,54.64
2018-05-31T03:23:07.349Z,54.47
2018-05-31T03:25:34.771Z,54.33
2018-05-31T03:28:02.197Z,54.20
2018-05-31T03:30:29.609Z,54.06
2018-05-31T03:32:57.047Z,53.85
2018-05-31T03:35:24.457Z,53.69
2018-05-31T03:37:51.889Z,53.60
2018-05-31T03:40:19.308Z,53.51
2018-05-31T03:42:46.740Z,53.46
2018-05-31T03:45:14.161Z,53.60
2018-05-31T03:47:41.580Z,53.76
2018-05-31T03:50:09.006Z,53.79
2018-05-31T03:52:36.424Z,53.78
2018-05-31T03:55:03.845Z,53.80
2018-05-31T03:57:31.317Z,53.81
2018-05-31T03:59:58.728Z,53.85
2018-05-31T04:02:26.144Z,53.81
2018-05-31T04:04:53.560Z,53.77
2018-05-31T04:07:20.993Z,53.76
2018-05-31T04:09:48.401Z,53.71
2018-05-31T04:12:15.841Z,53.57
2018-05-31T04:14:43.264Z,53.61
2018-05-31T04:17:10.688Z,53.57
2018-05-31T04:19:38.117Z,53.89
2018-05-31T04:22:05.549Z,53.93
2018-05-31T04:24:32.968Z,53.91
2018-05-31T04:27:00.396Z,54.38
2018-05-31T04:29:27.820Z,54.24
2018-05-31T04:31:55.256Z,54.39
2018-05-31T04:34:22.672Z,54.68
2018-05-31T04:36:50.104Z,55.05
2018-05-31T04:39:17.521Z,55.08
2018-05-31T04:41:44.944Z,55.12
2018-05-31T04:44:12.364Z,55.25
2018-05-31T04:46:39.806Z,55.37
2018-05-31T04:49:07.222Z,55.42
2018-05-31T04:51:34.900Z,55.54
2018-05-31T04:54:02.311Z,55.54
2018-05-31T04:56:29.732Z,55.62
2018-05-31T04:58:57.164Z,55.76
2018-05-31T05:01:24.582Z,55.70
2018-05-31T05:03:52.007Z,55.67
2018-05-31T05:06:19.449Z,55.32
2018-05-31T05:08:46.875Z,55.41
2018-05-31T05:11:14.293Z,54.96
2018-05-31T05:13:41.723Z,54.99
2018-05-31T05:16:09.137Z,54.51
2018-05-31T05:18:36.574Z,54.78
2018-05-31T05:21:03.988Z,54.89
2018-05-31T05:23:31.423Z,54.70
2018-05-31T05:25:58.841Z,54.64
2018-05-31T05:28:26.264Z,54.58
2018-05-31T05:30:53.680Z,54.24
2018-05-31T05:33:21.104Z,54.02
2018-05-31T05:35:48.524Z,53.92
2018-05-31T05:38:15.966Z,53.70
2018-05-31T05:40:43.384Z,53.46
2018-05-31T05:43:10.808Z,53.42
2018-05-31T05:45:38.220Z,53.37
2018-05-31T05:48:05.640Z,53.34
2018-05-31T05:50:33.052Z,53.33
2018-05-31T05:53:00.476Z,53.27
2018-05-31T05:55:27.894Z,53.35
2018-05-31T05:57:55.319Z,53.37
2018-05-31T06:00:22.735Z,53.13
2018-05-31T06:02:50.155Z,53.10
2018-05-31T06:05:17.572Z,53.08
2018-05-31T06:07:45.000Z,53.14
2018-05-31T06:10:12.429Z,52.83
2018-05-31T06:12:39.832Z,52.74
2018-05-31T06:15:07.252Z,52.04
2018-05-31T06:17:34.669Z,52.42
2018-05-31T06:20:02.103Z,52.25
2018-05-31T06:22:29.530Z,52.07
2018-05-31T06:24:56.960Z,51.79
2018-05-31T06:27:24.371Z,51.75
2018-05-31T06:29:51.809Z,51.66
2018-05-31T06:32:19.224Z,51.44
2018-05-31T06:34:46.652Z,51.23
2018-05-31T06:37:14.147Z,50.63
2018-05-31T06:39:41.516Z,50.68
2018-05-31T06:42:08.937Z,50.46
2018-05-31T06:44:36.365Z,50.25
2018-05-31T06:47:03.781Z,50.00
2018-05-31T06:49:31.215Z,49.83
2018-05-31T06:51:58.629Z,49.47
2018-05-31T06:54:26.084Z,48.87
2018-05-31T06:56:53.469Z,48.85
2018-05-31T06:59:20.901Z,48.75
2018-05-31T07:01:48.329Z,48.49
2018-05-31T07:04:15.749Z,47.82
2018-05-31T07:06:43.172Z,47.72
2018-05-31T07:09:10.598Z,47.41
2018-05-31T07:11:38.011Z,47.26
2018-05-31T07:14:05.424Z,47.12
2018-05-31T07:16:32.857Z,46.79
2018-05-31T07:19:00.281Z,46.73
2018-05-31T07:21:27.707Z,46.40
2018-05-31T07:23:55.129Z,46.23
2018-05-31T07:26:22.553Z,45.84
2018-05-31T07:28:49.976Z,45.58
2018-05-31T07:31:17.400Z,45.40
2018-05-31T07:33:44.830Z,45.07
2018-05-31T07:36:12.287Z,44.52
2018-05-31T07:38:39.689Z,44.54
2018-05-31T07:41:07.103Z,43.97
2018-05-31T07:43:34.520Z,43.93
2018-05-31T07:46:01.937Z,43.66
2018-05-31T07:48:29.353Z,43.41
2018-05-31T07:50:56.781Z,42.90
2018-05-31T07:53:24.192Z,42.73
2018-05-31T07:55:51.628Z,42.55
2018-05-31T07:58:19.062Z,42.30
2018-05-31T08:00:46.465Z,41.83
2018-05-31T08:03:13.899Z,41.60
2018-05-31T08:05:41.348Z,41.22
2018-05-31T08:08:08.748Z,40.82
2018-05-31T08:10:36.176Z,40.36
2018-05-31T08:13:03.596Z,39.93
2018-05-31T08:15:31.020Z,39.43
2018-05-31T08:17:58.442Z,39.00
2018-05-31T08:20:25.862Z,38.44
2018-05-31T08:22:53.280Z,37.72
2018-05-31T08:25:20.707Z,37.44
2018-05-31T08:27:48.129Z,37.26
2018-05-31T08:30:15.554Z,36.75
2018-05-31T08:32:42.968Z,36.53
2018-05-31T08:35:10.398Z,36.18
2018-05-31T08:37:37.807Z,35.91
2018-05-31T08:40:05.237Z,35.48
2018-05-31T08:42:32.651Z,35.26
2018-05-31T08:45:00.081Z,34.90
2018-05-31T08:47:27.505Z,34.64
2018-05-31T08:49:54.936Z,34.78
2018-05-31T08:52:22.352Z,34.69
2018-05-31T08:54:49.782Z,34.22
2018-05-31T08:57:17.209Z,33.92
2018-05-31T08:59:44.634Z,33.49
2018-05-31T09:02:12.059Z,33.34
2018-05-31T09:04:39.488Z,33.09
2018-05-31T09:07:06.909Z,32.82
2018-05-31T09:09:34.394Z,32.55
2018-05-31T09:12:01.817Z,32.39
2018-05-31T09:14:29.261Z,32.31
2018-05-31T09:16:56.696Z,32.04
2018-05-31T09:19:24.134Z,31.91
2018-05-31T09:21:51.577Z,31.66
2018-05-31T09:24:19.008Z,31.61
2018-05-31T09:26:46.444Z,31.21
2018-05-31T09:29:13.880Z,31.02
2018-05-31T09:31:41.300Z,30.67
2018-05-31T09:34:08.728Z,30.61
2018-05-31T09:36:36.156Z,30.17
2018-05-31T09:39:03.577Z,30.26
2018-05-31T09:41:31.005Z,30.03
2018-05-31T09:43:58.422Z,29.75
2018-05-31T09:46:25.861Z,29.88
2018-05-31T09:48:53.289Z,29.66
2018-05-31T09:51:20.721Z,29.54
2018-05-31T09:53:48.148Z,29.42
2018-05-31T09:56:15.585Z,29.43
2018-05-31T09:58:43.001Z,29.18
2018-05-31T10:01:10.441Z,29.19
2018-05-31T10:03:37.860Z,29.13
2018-05-31T10:06:05.295Z,28.33
2018-05-31T10:08:32.712Z,28.67
2018-05-31T10:11:00.149Z,28.41
2018-05-31T10:13:27.563Z,28.40
2018-05-31T10:15:55.006Z,28.40
2018-05-31T10:18:22.421Z,28.21
2018-05-31T10:20:49.862Z,28.14
2018-05-31T10:23:17.290Z,28.02
2018-05-31T10:25:44.713Z,27.71
2018-05-31T10:28:12.141Z,27.57
2018-05-31T10:30:39.568Z,27.45
2018-05-31T10:33:06.988Z,27.57
2018-05-31T10:35:34.416Z,27.58
2018-05-31T10:38:01.857Z,27.53
2018-05-31T10:40:29.276Z,27.62
2018-05-31T10:42:56.700Z,27.45
2018-05-31T10:45:24.141Z,27.40
2018-05-31T10:47:51.561Z,27.43
2018-05-31T10:50:18.995Z,27.41
2018-05-31T10:52:46.420Z,27.44
2018-05-31T10:55:13.849Z,27.53
2018-05-31T10:57:41.281Z,27.60
2018-05-31T11:00:08.717Z,28.01
2018-05-31T11:02:36.148Z,28.19
2018-05-31T11:05:03.570Z,28.17
2018-05-31T11:07:31.006Z,28.02
2018-05-31T11:09:58.416Z,28.05
2018-05-31T11:12:25.861Z,28.11
2018-05-31T11:14:53.303Z,28.26
2018-05-31T11:17:20.712Z,28.35
2018-05-31T11:19:48.132Z,28.58
2018-05-31T11:22:15.569Z,28.82
2018-05-31T11:24:42.988Z,29.03
2018-05-31T11:27:10.427Z,28.86
2018-05-31T11:29:37.835Z,28.79
2018-05-31T11:32:05.279Z,28.54
2018-05-31T11:34:32.680Z,28.32
2018-05-31T11:37:00.108Z,28.32
2018-05-31T11:39:27.536Z,28.36
2018-05-31T11:41:54.972Z,28.29
2018-05-31T11:44:22.388Z,28.36
2018-05-31T11:46:49.821Z,28.28
2018-05-31T11:49:17.256Z,28.03
2018-05-31T11:51:44.680Z,27.72
2018-05-31T11:54:12.105Z,27.68
2018-05-31T11:56:39.541Z,27.48
2018-05-31T11:59:06.975Z,27.44
2018-05-31T12:01:35.237Z,27.10
2018-05-31T12:04:02.669Z,27.08
2018-05-31T12:06:30.124Z,27.18
2018-05-31T12:08:57.527Z,27.51
2018-05-31T12:11:24.987Z,27.37
2018-05-31T12:13:52.409Z,27.16
2018-05-31T12:16:19.840Z,27.13
2018-05-31T12:18:47.260Z,27.03
2018-05-31T12:21:14.701Z,27.04
2018-05-31T12:23:42.123Z,26.96
2018-05-31T12:26:09.551Z,26.70
2018-05-31T12:28:36.976Z,26.47
2018-05-31T12:31:04.400Z,26.54
2018-05-31T12:33:31.824Z,27.02
2018-05-31T12:35:59.269Z,26.94
2018-05-31T12:38:26.707Z,26.90
2018-05-31T12:40:54.137Z,27.22
2018-05-31T12:43:21.564Z,27.39
2018-05-31T12:45:48.972Z,27.57
2018-05-31T12:48:16.400Z,27.27
2018-05-31T12:50:43.831Z,26.78
2018-05-31T12:53:11.255Z,26.85
2018-05-31T12:55:38.678Z,26.86
2018-05-31T12:58:06.116Z,27.09
2018-05-31T13:00:33.536Z,27.14
2018-05-31T13:03:00.989Z,27.03
2018-05-31T13:05:28.564Z,26.37
2018-05-31T13:07:56.020Z,26.61
2018-05-31T13:10:23.441Z,26.60
2018-05-31T13:12:50.872Z,26.28
2018-05-31T13:15:18.302Z,26.41
2018-05-31T13:17:45.731Z,26.44
2018-05-31T13:20:13.160Z,26.74
2018-05-31T13:22:40.589Z,26.66
2018-05-31T13:25:08.018Z,26.32
2018-05-31T13:27:35.458Z,26.62
2018-05-31T13:30:02.881Z,27.47
2018-05-31T13:32:30.311Z,28.44
2018-05-31T13:34:57.735Z,28.78
2018-05-31T13:37:25.177Z,29.33
2018-05-31T13:39:52.604Z,29.87
2018-05-31T13:42:20.032Z,30.48
2018-05-31T13:44:47.469Z,30.40
2018-05-31T13:47:14.904Z,30.53
2018-05-31T13:49:42.329Z,30.71
2018-05-31T13:52:09.760Z,30.93
2018-05-31T13:54:37.223Z,30.95
2018-05-31T13:57:04.652Z,30.79
2018-05-31T13:59:32.076Z,30.85
2018-05-31T14:01:59.503Z,30.83
2018-05-31T14:04:26.918Z,30.56
2018-05-31T14:06:54.335Z,30.58
2018-05-31T14:09:21.755Z,30.61
2018-05-31T14:11:49.168Z,30.54
2018-05-31T14:14:16.580Z,30.62
2018-05-31T14:16:44.008Z,30.48
2018-05-31T14:19:11.424Z,31.12
2018-05-31T14:21:38.843Z,31.62
2018-05-31T14:24:06.265Z,31.86
2018-05-31T14:26:33.687Z,32.10
2018-05-31T14:29:01.115Z,32.20
2018-05-31T14:31:28.534Z,31.89
2018-05-31T14:33:55.960Z,31.73
2018-05-31T14:36:23.369Z,31.62
2018-05-31T14:38:50.804Z,31.46
2018-05-31T14:41:18.225Z,31.38
2018-05-31T14:43:45.662Z,31.40
2018-05-31T14:46:13.081Z,31.33
2018-05-31T14:48:40.508Z,31.32
2018-05-31T14:51:07.930Z,31.24
2018-05-31T14:53:35.361Z,31.10
2018-05-31T14:56:02.786Z,31.22
2018-05-31T14:58:30.213Z,31.09
2018-05-31T15:00:57.631Z,31.21
2018-05-31T15:03:25.048Z,31.25
2018-05-31T15:05:52.469Z,31.24
2018-05-31T15:08:19.901Z,31.33
2018-05-31T15:10:47.309Z,31.30
2018-05-31T15:13:14.742Z,31.23
2018-05-31T15:15:42.175Z,30.92
2018-05-31T15:18:09.597Z,31.21
2018-05-31T15:20:37.024Z,31.40
2018-05-31T15:23:04.448Z,31.39
2018-05-31T15:25:31.867Z,31.68
2018-05-31T15:27:59.280Z,31.85
2018-05-31T15:30:26.792Z,32.15
2018-05-31T15:32:54.216Z,32.38
2018-05-31T15:35:21.634Z,32.53
2018-05-31T15:37:49.055Z,32.65
2018-05-31T15:40:16.472Z,32.82
2018-05-31T15:42:43.913Z,32.83
2018-05-31T15:45:11.328Z,33.16
2018-05-31T15:47:38.768Z,33.28
2018-05-31T15:50:06.197Z,33.61
2018-05-31T15:52:33.623Z,33.87
2018-05-31T15:55:01.052Z,33.84
2018-05-31T15:57:28.481Z,33.86
2018-05-31T15:59:55.908Z,33.86
2018-05-31T16:02:23.332Z,34.15
2018-05-31T16:04:50.777Z,34.38
2018-05-31T16:07:18.220Z,34.49
2018-05-31T16:09:45.650Z,34.61
2018-05-31T16:12:13.072Z,34.88
2018-05-31T16:14:40.508Z,35.07
2018-05-31T16:17:17.856Z,34.99
2018-05-31T16:19:45.408Z,35.04
2018-05-31T16:22:12.833Z,35.05
2018-05-31T16:24:40.265Z,34.91
2018-05-31T16:27:07.696Z,35.16
2018-05-31T16:29:35.144Z,34.99
2018-05-31T16:32:02.560Z,35.08
2018-05-31T16:34:29.990Z,35.10
2018-05-31T16:36:57.408Z,35.30
2018-05-31T16:39:24.843Z,35.63
2018-05-31T16:41:52.368Z,36.47
2018-05-31T16:44:19.792Z,36.06
2018-05-31T16:46:47.274Z,36.54
2018-05-31T16:49:14.735Z,36.70
2018-05-31T16:51:42.220Z,36.66
2018-05-31T16:54:09.648Z,36.93
2018-05-31T16:56:37.072Z,37.12
2018-05-31T16:59:04.559Z,37.24
2018-05-31T17:01:31.979Z,37.33
2018-05-31T17:03:59.396Z,37.47
2018-05-31T17:06:26.817Z,37.36
2018-05-31T17:08:54.282Z,37.58
2018-05-31T17:11:21.699Z,37.65
2018-05-31T17:13:49.187Z,37.63
2018-05-31T17:16:16.609Z,37.72
2018-05-31T17:18:44.037Z,37.80
2018-05-31T17:21:11.553Z,37.95
2018-05-31T17:23:39.012Z,38.04
2018-05-31T17:26:06.436Z,38.09
2018-05-31T17:28:33.865Z,38.18
2018-05-31T17:31:01.279Z,38.38
2018-05-31T17:33:28.703Z,38.63
2018-05-31T17:35:56.186Z,38.85
2018-05-31T17:38:23.603Z,39.07
2018-05-31T17:40:51.102Z,39.38
2018-05-31T17:43:18.503Z,39.94
2018-05-31T17:45:45.929Z,39.92
2018-05-31T17:48:13.340Z,39.99
2018-05-31T17:50:40.768Z,40.19
2018-05-31T17:53:08.197Z,40.27
2018-05-31T17:55:35.639Z,40.47
2018-05-31T17:58:03.048Z,40.58
2018-05-31T18:00:30.469Z,40.61
2018-05-31T18:02:57.895Z,40.86
2018-05-31T18:05:25.315Z,41.16
2018-05-31T18:07:52.747Z,41.24
2018-05-31T18:10:20.170Z,41.36
2018-05-31T18:12:47.589Z,41.51
2018-05-31T18:15:15.025Z,41.61
2018-05-31T18:17:42.437Z,41.78
2018-05-31T18:20:09.875Z,41.91
2018-05-31T18:22:37.289Z,42.05
2018-05-31T18:25:04.713Z,42.19
2018-05-31T18:27:32.176Z,42.44
2018-05-31T18:29:59.561Z,42.53
2018-05-31T18:32:26.975Z,42.62
2018-05-31T18:34:54.409Z,42.70
2018-05-31T18:37:22.700Z,42.83
2018-05-31T18:39:50.184Z,43.22
2018-05-31T18:42:17.624Z,43.18
2018-05-31T18:44:45.128Z,43.21
2018-05-31T18:47:12.563Z,43.43
2018-05-31T18:49:40.039Z,43.48
2018-05-31T18:52:09.380Z,43.48
2018-05-31T18:54:36.799Z,43.73
2018-05-31T18:57:04.888Z,43.65
2018-05-31T18:59:32.321Z,43.72
2018-05-31T19:01:59.737Z,43.79
2018-05-31T19:04:27.156Z,43.78
2018-05-31T19:06:54.593Z,43.88
2018-05-31T19:09:27.574Z,43.87
2018-05-31T19:11:55.021Z,43.87
2018-05-31T19:14:22.437Z,43.85
2018-05-31T19:16:49.869Z,43.87
2018-05-31T19:19:22.851Z,43.83
2018-05-31T19:21:50.296Z,43.92
2018-05-31T19:24:23.465Z,44.03
2018-05-31T19:26:50.905Z,44.07
2018-05-31T19:29:18.350Z,44.08
2018-05-31T19:31:45.757Z,44.11
2018-05-31T19:34:13.176Z,44.09
2018-05-31T19:36:46.245Z,43.96
2018-05-31T19:39:13.669Z,44.19
2018-05-31T19:41:41.095Z,44.28
2018-05-31T19:44:14.221Z,44.33
2018-05-31T19:46:41.649Z,44.26
2018-05-31T19:49:09.072Z,44.22
2018-05-31T19:54:40.761Z,44.43
2018-05-31T19:57:08.188Z,44.53
2018-05-31T20:02:44.395Z,44.55
2018-05-31T20:05:11.816Z,44.59
2018-05-31T20:07:39.277Z,44.74
2018-05-31T20:10:06.659Z,44.74
2018-05-31T20:12:34.089Z,44.79
2018-05-31T20:15:01.533Z,44.79
2018-05-31T20:17:28.943Z,44.88
2018-05-31T20:19:56.357Z,44.89
2018-05-31T20:22:23.797Z,44.97
2018-05-31T20:24:51.232Z,44.94
2018-05-31T20:27:18.656Z,45.13
2018-05-31T20:29:46.075Z,45.06
2018-05-31T20:32:13.504Z,45.31
2018-05-31T20:34:40.924Z,45.38
2018-05-31T20:37:08.347Z,45.38
2018-05-31T20:39:35.761Z,45.61
2018-05-31T20:42:03.184Z,45.70
2018-05-31T20:44:30.613Z,45.68
2018-05-31T20:46:58.032Z,45.67
2018-05-31T20:49:25.486Z,45.64
2018-05-31T20:51:52.882Z,45.61
2018-05-31T20:54:20.313Z,45.51
2018-05-31T20:56:47.737Z,45.47
2018-05-31T20:59:15.158Z,45.36
2018-05-31T21:01:42.580Z,45.33
2018-05-31T21:04:10.001Z,45.35
2018-05-31T21:06:37.436Z,45.51
2018-05-31T21:09:05.557Z,45.80
2018-05-31T21:11:32.981Z,46.09
2018-05-31T21:14:00.392Z,46.27
2018-05-31T21:16:27.816Z,46.51
2018-05-31T21:18:55.233Z,46.66
2018-05-31T21:21:22.672Z,46.90
2018-05-31T21:23:50.085Z,47.02
2018-05-31T21:26:17.516Z,47.27
2018-05-31T21:28:44.931Z,47.47
2018-05-31T21:31:12.357Z,47.66
2018-05-31T21:33:39.772Z,47.79
2018-05-31T21:36:07.200Z,47.99
2018-05-31T21:38:34.613Z,48.21
2018-05-31T21:41:02.055Z,48.56
2018-05-31T21:43:29.482Z,48.63
2018-05-31T21:45:56.892Z,48.85
2018-05-31T21:48:24.320Z,49.05
2018-05-31T21:50:51.737Z,49.07
2018-05-31T21:53:19.179Z,49.25
2018-05-31T21:55:46.591Z,49.54
2018-05-31T21:58:14.017Z,49.61
2018-05-31T22:01:02.136Z,49.83
2018-05-31T22:03:29.562Z,50.23
2018-05-31T22:05:56.997Z,50.35
2018-05-31T22:08:24.419Z,50.57
2018-05-31T22:10:51.832Z,50.58
2018-05-31T22:13:19.260Z,50.64
2018-05-31T22:15:46.676Z,50.72
2018-05-31T22:18:14.101Z,50.90
2018-05-31T22:20:41.508Z,50.93
2018-05-31T22:23:08.936Z,50.98
2018-05-31T22:25:36.357Z,51.00
2018-05-31T22:28:03.776Z,51.15
2018-05-31T22:30:31.200Z,51.16
2018-05-31T22:32:58.633Z,51.21
2018-05-31T22:35:26.045Z,51.26
2018-05-31T22:37:54.364Z,51.39
2018-05-31T22:40:21.777Z,51.50
2018-05-31T22:42:49.209Z,51.59
2018-05-31T22:45:16.630Z,51.69
2018-05-31T22:47:44.056Z,51.79
2018-05-31T22:50:11.471Z,51.95
2018-05-31T22:52:38.906Z,52.03
2018-05-31T22:55:06.312Z,52.16
2018-05-31T22:57:33.745Z,52.33
2018-05-31T23:00:01.161Z,52.43
2018-05-31T23:02:28.585Z,52.49
2018-05-31T23:04:55.999Z,52.61
2018-05-31T23:07:23.424Z,52.78
2018-05-31T23:09:50.845Z,52.83
2018-05-31T23:12:18.289Z,52.94
2018-05-31T23:14:45.694Z,53.05
2018-05-31T23:17:13.117Z,53.12
2018-05-31T23:19:40.540Z,53.33
2018-05-31T23:22:07.986Z,53.52
2018-05-31T23:24:35.405Z,53.51
2018-05-31T23:27:02.825Z,53.64
2018-05-31T23:29:30.264Z,53.66
2018-05-31T23:31:57.692Z,53.67
2018-05-31T23:34:25.112Z,53.76
2018-05-31T23:36:52.521Z,53.85
2018-05-31T23:39:19.946Z,54.05
2018-05-31T23:41:47.365Z,54.11
2018-05-31T23:44:14.791Z,54.17
2018-05-31T23:46:42.212Z,54.24
2018-05-31T23:49:09.645Z,54.30
2018-05-31T23:51:37.053Z,54.37
2018-05-31T23:54:04.506Z,54.37
2018-05-31T23:56:31.920Z,54.59
2018-05-31T23:58:59.347Z,54.81
